Time;durP1;ratioP1;P1;durP2;ratioP2;P2;SDS_P1;SDS_P2;PMS_P1;PMS_P2;Temp;Humidity;BMP_temperature;BMP_pressure;BME280_temperature;BME280_humidity;BME280_pressure;Samples;Min_cycle;Max_cycle;Signal;HPM_P1;HPM_P2
2023/03/06 00:00:18;;;;;;;6.70;2.83;;;4.00;94.00;;;;;;5096681;28;20098;-85
2023/03/06 00:02:44;;;;;;;5.33;2.53;;;4.00;93.80;;;;;;5096150;28;20399;-85
2023/03/06 00:05:11;;;;;;;5.73;2.20;;;4.00;93.90;;;;;;5096498;28;20024;-85
2023/03/06 00:07:37;;;;;;;8.07;2.77;;;3.90;94.10;;;;;;5095246;28;20101;-84
2023/03/06 00:10:03;;;;;;;6.20;2.43;;;3.90;93.90;;;;;;5096557;28;20036;-84
2023/03/06 00:12:29;;;;;;;6.97;2.60;;;3.90;93.90;;;;;;5094637;28;20028;-85
2023/03/06 00:14:54;;;;;;;8.53;2.63;;;3.90;94.10;;;;;;5061778;28;20031;-85
2023/03/06 00:17:20;;;;;;;7.07;2.70;;;3.80;94.00;;;;;;5077802;28;20031;-84
2023/03/06 00:19:46;;;;;;;4.30;1.97;;;3.80;94.00;;;;;;5095016;28;20119;-85
2023/03/06 00:22:13;;;;;;;4.80;2.73;;;3.80;94.00;;;;;;5077980;28;20024;-83
2023/03/06 00:24:39;;;;;;;5.97;2.27;;;3.70;94.00;;;;;;5078118;28;20470;-85
2023/03/06 00:27:05;;;;;;;5.40;2.60;;;3.70;94.20;;;;;;5078254;28;20051;-84
2023/03/06 00:29:31;;;;;;;6.30;2.57;;;3.60;94.20;;;;;;5094900;28;20060;-85
2023/03/06 00:31:57;;;;;;;5.10;2.43;;;3.70;94.50;;;;;;5061380;28;20036;-85
2023/03/06 00:34:22;;;;;;;4.90;2.63;;;3.70;94.50;;;;;;5077787;28;20032;-85
2023/03/06 00:36:48;;;;;;;5.30;2.77;;;3.70;94.50;;;;;;5094598;28;20066;-85
2023/03/06 00:39:13;;;;;;;9.67;2.90;;;3.60;94.50;;;;;;5094303;28;20047;-84
2023/03/06 00:41:39;;;;;;;6.97;2.50;;;3.60;94.40;;;;;;5095686;28;20031;-84
2023/03/06 00:44:05;;;;;;;7.70;3.67;;;3.50;94.50;;;;;;5060470;28;20036;-84
2023/03/06 00:46:30;;;;;;;6.57;3.00;;;3.50;94.60;;;;;;5061142;28;20024;-84
2023/03/06 00:48:56;;;;;;;6.67;3.10;;;3.40;94.80;;;;;;5094606;28;20055;-87
2023/03/06 00:51:21;;;;;;;5.57;2.80;;;3.40;95.10;;;;;;5094097;28;20039;-86
2023/03/06 00:53:47;;;;;;;7.70;3.07;;;3.40;95.00;;;;;;5077963;28;20032;-86
2023/03/06 00:56:13;;;;;;;7.50;3.27;;;3.30;94.90;;;;;;5094155;28;20020;-84
2023/03/06 00:58:38;;;;;;;7.53;3.27;;;3.30;94.90;;;;;;5095998;28;20043;-86
2023/03/06 01:01:04;;;;;;;6.93;2.87;;;3.30;94.90;;;;;;5095285;28;20617;-86
2023/03/06 01:03:30;;;;;;;5.87;2.97;;;3.30;95.00;;;;;;5094709;28;20032;-86
2023/03/06 01:05:56;;;;;;;7.10;2.60;;;3.30;95.00;;;;;;5078115;28;20032;-85
2023/03/06 01:08:21;;;;;;;7.43;3.43;;;3.30;95.10;;;;;;5077883;28;20052;-85
2023/03/06 01:10:47;;;;;;;8.03;3.20;;;3.30;95.10;;;;;;5094556;28;20034;-86
2023/03/06 01:13:12;;;;;;;6.00;3.23;;;3.30;95.20;;;;;;5062275;28;20024;-85
2023/03/06 01:15:38;;;;;;;7.30;3.30;;;3.30;95.30;;;;;;5098825;28;20425;-86
2023/03/06 01:18:04;;;;;;;9.43;3.57;;;3.20;95.60;;;;;;5109264;28;20039;-85
2023/03/06 01:20:30;;;;;;;7.10;3.33;;;3.20;95.60;;;;;;5085811;28;20055;-83
2023/03/06 01:22:55;;;;;;;10.77;3.50;;;3.20;95.60;;;;;;5094459;28;20456;-82
2023/03/06 01:25:23;;;;;;;9.20;3.20;;;3.30;95.70;;;;;;5093569;28;20024;-82
2023/03/06 01:27:49;;;;;;;6.93;2.87;;;3.30;95.90;;;;;;5094635;28;20024;-82
2023/03/06 01:30:15;;;;;;;7.27;3.80;;;3.30;96.00;;;;;;5094154;28;20085;-82
2023/03/06 01:32:40;;;;;;;7.83;3.57;;;3.30;96.30;;;;;;5076736;28;20431;-81
2023/03/06 01:35:06;;;;;;;7.83;3.80;;;3.30;96.20;;;;;;5076665;28;20379;-82
2023/03/06 01:37:35;;;;;;;9.57;3.60;;;3.20;96.00;;;;;;5093283;28;20111;-83
2023/03/06 01:40:00;;;;;;;9.17;4.20;;;3.20;96.20;;;;;;5076026;28;20040;-82
2023/03/06 01:42:26;;;;;;;9.63;4.50;;;3.30;96.70;;;;;;5092937;28;20530;-83
2023/03/06 01:45:26;;;;;;;10.07;4.37;;;3.20;96.30;;;;;;5093027;28;20032;-82
2023/03/06 01:47:51;;;;;;;10.80;5.80;;;3.20;96.40;;;;;;5092438;28;20123;-81
2023/03/06 01:50:17;;;;;;;11.07;5.10;;;3.20;96.40;;;;;;5094530;28;20210;-82
2023/03/06 01:52:52;;;;;;;14.23;5.47;;;3.20;96.50;;;;;;5075843;28;20036;-82
2023/03/06 01:55:29;;;;;;;12.33;6.33;;;3.10;96.40;;;;;;5092757;28;20055;-82
2023/03/06 01:57:58;;;;;;;12.50;5.40;;;3.10;96.50;;;;;;5092394;28;20503;-82
2023/03/06 02:00:26;;;;;;;12.37;6.60;;;3.10;96.50;;;;;;5092700;28;20036;-82
2023/03/06 02:02:57;;;;;;;12.30;7.60;;;3.10;96.60;;;;;;5093921;28;20107;-82
2023/03/06 02:05:23;;;;;;;16.73;8.77;;;3.10;96.90;;;;;;5092622;28;20027;-82
2023/03/06 02:07:50;;;;;;;15.60;8.33;;;3.00;96.80;;;;;;5094063;28;20044;-82
2023/03/06 02:10:20;;;;;;;16.13;9.23;;;3.00;96.90;;;;;;5091987;28;20423;-82
2023/03/06 02:12:48;;;;;;;16.83;9.50;;;3.00;97.00;;;;;;5092165;28;20097;-82
2023/03/06 02:15:16;;;;;;;14.23;8.30;;;3.00;96.90;;;;;;5092824;28;20031;-82
2023/03/06 02:17:44;;;;;;;16.20;9.57;;;3.00;96.90;;;;;;5092120;28;20023;-85
2023/03/06 02:20:22;;;;;;;15.90;8.90;;;3.00;97.00;;;;;;5093658;28;20051;-83
2023/03/06 02:22:48;;;;;;;17.77;10.30;;;2.90;97.20;;;;;;5093828;28;20103;-84
2023/03/06 02:25:37;;;;;;;21.37;10.73;;;2.90;97.50;;;;;;5092287;28;20118;-84
2023/03/06 02:28:06;;;;;;;17.83;10.37;;;2.90;97.50;;;;;;5092338;28;20017;-83
2023/03/06 02:30:32;;;;;;;19.73;11.10;;;2.90;97.60;;;;;;5091968;28;20432;-84
2023/03/06 02:32:58;;;;;;;19.40;11.43;;;3.00;97.90;;;;;;5075430;28;20127;-83
2023/03/06 02:35:26;;;;;;;19.13;11.63;;;2.90;97.90;;;;;;5093588;28;20028;-84
2023/03/06 02:37:56;;;;;;;20.73;12.03;;;2.90;98.00;;;;;;5093341;28;20065;-84
2023/03/06 02:40:22;;;;;;;21.07;13.60;;;2.90;98.20;;;;;;5091684;28;20395;-84
2023/03/06 02:42:57;;;;;;;21.17;12.47;;;2.90;98.10;;;;;;5092462;28;20055;-83
2023/03/06 02:45:44;;;;;;;22.10;13.70;;;2.90;98.20;;;;;;5093732;28;20032;-83
2023/03/06 02:48:11;;;;;;;20.57;12.83;;;2.90;98.20;;;;;;5093402;28;20031;-84
2023/03/06 02:50:38;;;;;;;23.77;13.70;;;2.90;98.50;;;;;;5093603;28;20063;-84
2023/03/06 02:53:04;;;;;;;23.37;14.50;;;2.90;98.40;;;;;;5092218;28;20020;-84
2023/03/06 02:55:30;;;;;;;21.80;13.40;;;3.00;98.40;;;;;;5093488;28;20358;-84
2023/03/06 02:57:56;;;;;;;21.87;13.27;;;2.90;98.40;;;;;;5091810;28;20115;-84
2023/03/06 03:00:21;;;;;;;25.70;15.37;;;2.90;98.70;;;;;;5091890;28;20579;-84
2023/03/06 03:02:47;;;;;;;23.27;14.30;;;2.90;98.70;;;;;;5074444;28;20102;-84
2023/03/06 03:05:13;;;;;;;22.50;13.43;;;2.80;98.60;;;;;;5075393;28;20032;-84
2023/03/06 03:07:39;;;;;;;24.90;14.30;;;2.80;98.80;;;;;;5074989;28;20044;-84
2023/03/06 03:10:05;;;;;;;23.50;13.90;;;2.90;98.80;;;;;;5092071;28;20024;-83
2023/03/06 03:12:31;;;;;;;25.33;13.83;;;2.90;98.80;;;;;;5091325;28;20029;-83
2023/03/06 03:14:57;;;;;;;22.30;13.40;;;2.90;98.90;;;;;;5091701;28;20071;-83
2023/03/06 03:17:23;;;;;;;20.93;12.33;;;2.90;98.70;;;;;;5058372;28;20130;-83
2023/03/06 03:19:49;;;;;;;20.27;11.37;;;2.80;98.80;;;;;;5075190;28;20118;-82
2023/03/06 03:22:18;;;;;;;23.00;14.00;;;2.80;98.70;;;;;;5091775;28;20028;-83
2023/03/06 03:24:44;;;;;;;20.20;11.70;;;2.80;98.70;;;;;;5075958;28;20123;-83
2023/03/06 03:27:09;;;;;;;22.40;13.00;;;2.80;98.70;;;;;;5097249;28;20527;-82
2023/03/06 03:29:35;;;;;;;23.67;12.23;;;2.70;98.80;;;;;;5078842;28;20499;-82
2023/03/06 03:32:01;;;;;;;23.00;13.80;;;2.80;99.20;;;;;;5061730;28;20067;-82
2023/03/06 03:34:27;;;;;;;23.13;12.83;;;2.80;99.10;;;;;;5095583;28;20030;-82
2023/03/06 03:36:52;;;;;;;23.10;12.53;;;2.80;99.30;;;;;;5096987;28;20545;-81
2023/03/06 03:39:18;;;;;;;21.60;13.10;;;2.70;99.30;;;;;;5098036;28;20559;-82
2023/03/06 03:41:44;;;;;;;24.57;13.73;;;2.70;99.40;;;;;;5078704;28;20055;-83
2023/03/06 03:44:10;;;;;;;20.60;12.30;;;2.70;99.40;;;;;;5095488;28;20375;-83
2023/03/06 03:46:36;;;;;;;23.47;13.17;;;2.70;99.60;;;;;;5060177;28;20032;-83
2023/03/06 03:49:02;;;;;;;23.43;12.30;;;2.70;99.70;;;;;;5097116;28;20031;-83
2023/03/06 03:51:27;;;;;;;22.07;12.30;;;2.80;99.70;;;;;;5078521;28;20024;-83
2023/03/06 03:53:55;;;;;;;24.97;12.50;;;2.80;99.80;;;;;;5078597;28;20024;-84
2023/03/06 03:56:21;;;;;;;20.13;12.40;;;2.80;99.80;;;;;;5078217;28;20434;-83
2023/03/06 03:58:47;;;;;;;19.63;11.50;;;2.90;99.90;;;;;;5096473;28;20494;-84
2023/03/06 04:01:13;;;;;;;20.90;11.77;;;2.90;99.90;;;;;;5075143;28;20024;-84
2023/03/06 04:03:39;;;;;;;19.63;11.37;;;2.90;99.90;;;;;;5086434;28;20090;-84
2023/03/06 04:06:05;;;;;;;19.40;11.57;;;2.90;99.90;;;;;;5076433;28;20032;-84
2023/03/06 04:08:30;;;;;;;19.10;11.07;;;2.90;99.90;;;;;;5093194;28;20483;-83
2023/03/06 04:10:56;;;;;;;21.43;11.03;;;2.90;99.90;;;;;;5094534;28;20373;-84
2023/03/06 04:13:22;;;;;;;19.27;10.60;;;2.90;99.90;;;;;;5094823;28;20464;-83
2023/03/06 04:15:50;;;;;;;16.40;10.17;;;2.90;99.90;;;;;;5094028;28;20040;-84
2023/03/06 04:18:16;;;;;;;19.53;10.73;;;2.90;99.90;;;;;;5094192;28;20027;-84
2023/03/06 04:20:44;;;;;;;17.97;10.63;;;2.90;99.90;;;;;;5095805;28;20040;-82
2023/03/06 04:23:10;;;;;;;18.00;11.60;;;2.90;99.90;;;;;;5094854;28;20536;-82
2023/03/06 04:25:37;;;;;;;17.10;9.90;;;2.90;99.90;;;;;;5094496;28;20043;-83
2023/03/06 04:28:02;;;;;;;19.27;10.90;;;2.90;99.90;;;;;;5094781;28;20024;-82
2023/03/06 04:30:28;;;;;;;19.23;10.80;;;2.90;99.90;;;;;;5069328;28;20210;-82
2023/03/06 04:32:53;;;;;;;19.23;12.23;;;3.00;99.90;;;;;;5074452;28;20040;-82
2023/03/06 04:35:19;;;;;;;21.67;11.10;;;2.90;99.90;;;;;;5091340;28;20058;-82
2023/03/06 04:37:45;;;;;;;18.80;10.93;;;2.90;99.90;;;;;;5094638;28;20060;-84
2023/03/06 04:40:23;;;;;;;19.10;10.57;;;2.90;99.90;;;;;;5094260;28;20403;-82
2023/03/06 04:42:48;;;;;;;18.67;11.20;;;2.90;99.90;;;;;;5095069;28;20024;-82
2023/03/06 04:45:15;;;;;;;17.83;10.83;;;2.90;99.90;;;;;;5077141;28;20089;-83
2023/03/06 04:47:41;;;;;;;19.80;10.67;;;3.00;99.90;;;;;;5077513;28;20035;-82
2023/03/06 04:50:07;;;;;;;20.80;11.27;;;3.00;99.90;;;;;;5094396;28;20028;-82
2023/03/06 04:52:33;;;;;;;16.17;9.97;;;3.00;99.90;;;;;;5095826;28;20027;-83
2023/03/06 04:54:59;;;;;;;17.47;10.63;;;3.00;99.90;;;;;;5077165;28;20395;-83
2023/03/06 04:57:25;;;;;;;22.97;11.97;;;3.10;99.90;;;;;;5094015;28;20507;-83
2023/03/06 04:59:50;;;;;;;19.83;10.80;;;3.10;99.90;;;;;;5094228;28;20040;-82
2023/03/06 05:02:17;;;;;;;19.37;11.43;;;3.10;99.90;;;;;;5093958;28;20025;-83
2023/03/06 05:04:42;;;;;;;20.87;10.70;;;3.10;99.90;;;;;;5094995;28;20036;-83
2023/03/06 05:07:09;;;;;;;18.33;11.00;;;3.10;99.90;;;;;;5060178;28;20135;-82
2023/03/06 05:09:35;;;;;;;19.53;10.67;;;3.20;99.90;;;;;;5093402;28;20020;-83
2023/03/06 05:12:01;;;;;;;18.63;10.17;;;3.20;99.90;;;;;;5093194;28;20024;-83
2023/03/06 05:14:30;;;;;;;19.93;11.53;;;3.20;99.90;;;;;;5076960;28;20036;-81
2023/03/06 05:16:56;;;;;;;17.47;10.50;;;3.30;99.90;;;;;;5093734;28;20073;-83
2023/03/06 05:19:22;;;;;;;20.83;10.97;;;3.30;99.90;;;;;;5093094;28;20376;-84
2023/03/06 05:21:47;;;;;;;21.97;10.73;;;3.30;99.90;;;;;;5076772;28;20020;-83
2023/03/06 05:24:13;;;;;;;19.83;10.87;;;3.30;99.90;;;;;;5072375;28;20085;-82
2023/03/06 05:26:39;;;;;;;18.43;10.07;;;3.30;99.90;;;;;;5090460;28;20046;-83
2023/03/06 05:29:04;;;;;;;21.47;11.67;;;3.20;99.90;;;;;;5093757;28;20039;-83
2023/03/06 05:31:30;;;;;;;19.53;11.33;;;3.20;99.90;;;;;;5059715;28;20063;-83
2023/03/06 05:33:59;;;;;;;19.80;11.43;;;3.30;99.90;;;;;;5073238;28;20499;-84
2023/03/06 05:36:25;;;;;;;21.13;11.33;;;3.20;99.90;;;;;;5056922;28;20178;-85
2023/03/06 05:38:51;;;;;;;19.77;11.40;;;3.30;99.90;;;;;;5074633;28;20052;-83
2023/03/06 05:41:16;;;;;;;20.67;9.73;;;3.30;99.90;;;;;;5072661;28;20036;-83
2023/03/06 05:43:42;;;;;;;18.93;9.70;;;3.30;99.90;;;;;;5082047;28;20032;-85
2023/03/06 05:46:09;;;;;;;21.37;10.50;;;3.40;99.90;;;;;;5078818;28;20055;-86
2023/03/06 05:48:36;;;;;;;18.63;10.30;;;3.40;99.90;;;;;;5100762;28;20016;-85
2023/03/06 05:51:03;;;;;;;20.70;10.27;;;3.40;99.90;;;;;;5097661;28;20047;-86
2023/03/06 05:53:29;;;;;;;22.80;11.30;;;3.40;99.90;;;;;;5104959;28;20111;-85
2023/03/06 05:56:04;;;;;;;18.73;10.00;;;3.40;99.90;;;;;;5099995;28;20062;-83
2023/03/06 05:58:31;;;;;;;21.97;10.30;;;3.40;99.90;;;;;;5093225;28;20020;-83
2023/03/06 06:00:57;;;;;;;21.70;10.97;;;3.40;99.90;;;;;;5079534;28;20063;-84
2023/03/06 06:03:23;;;;;;;17.93;9.87;;;3.40;99.90;;;;;;5095752;28;20521;-84
2023/03/06 06:05:50;;;;;;;17.37;9.50;;;3.50;99.90;;;;;;5092974;28;20020;-84
2023/03/06 06:08:16;;;;;;;20.90;10.13;;;3.50;99.90;;;;;;5092785;28;20044;-83
2023/03/06 06:10:41;;;;;;;19.00;9.30;;;3.50;99.90;;;;;;5075844;28;20074;-84
2023/03/06 06:13:07;;;;;;;20.27;9.50;;;3.50;99.90;;;;;;5067692;28;20372;-82
2023/03/06 06:15:33;;;;;;;19.50;9.67;;;3.50;99.90;;;;;;5093183;28;20051;-84
2023/03/06 06:17:58;;;;;;;16.33;9.10;;;3.50;99.90;;;;;;5075508;28;20032;-84
2023/03/06 06:20:24;;;;;;;16.57;8.53;;;3.40;99.90;;;;;;5091631;28;20040;-83
2023/03/06 06:22:50;;;;;;;15.90;9.87;;;3.60;99.90;;;;;;5070824;28;20033;-83
2023/03/06 06:25:16;;;;;;;16.93;8.60;;;3.50;99.90;;;;;;5092015;28;20051;-83
2023/03/06 06:27:42;;;;;;;17.10;8.10;;;3.50;99.90;;;;;;5072861;28;20052;-84
2023/03/06 06:30:10;;;;;;;15.67;9.03;;;3.50;99.90;;;;;;5093374;28;20117;-84
2023/03/06 06:32:36;;;;;;;19.10;8.47;;;3.50;99.90;;;;;;5077202;28;20177;-82
2023/03/06 06:35:03;;;;;;;13.87;7.57;;;3.60;99.90;;;;;;5108948;28;20378;-84
2023/03/06 06:37:29;;;;;;;16.47;9.40;;;3.40;99.90;;;;;;5112951;28;20024;-84
2023/03/06 06:39:55;;;;;;;15.87;8.87;;;3.40;99.90;;;;;;5095076;28;20084;-83
2023/03/06 06:42:20;;;;;;;16.83;9.40;;;3.40;99.90;;;;;;5092153;28;20020;-84
2023/03/06 06:44:46;;;;;;;14.70;8.90;;;3.50;99.90;;;;;;5104857;28;20376;-83
2023/03/06 06:47:12;;;;;;;20.07;10.03;;;3.40;99.90;;;;;;5101924;28;20016;-83
2023/03/06 06:49:38;;;;;;;18.43;9.90;;;3.40;99.90;;;;;;5092619;28;20020;-83
2023/03/06 06:52:05;;;;;;;19.03;10.37;;;3.40;99.90;;;;;;5074876;28;20450;-84
2023/03/06 06:54:33;;;;;;;19.47;10.77;;;3.40;99.90;;;;;;5092728;28;20029;-83
2023/03/06 06:56:59;;;;;;;19.03;11.37;;;3.50;99.90;;;;;;5092188;28;20482;-84
2023/03/06 06:59:24;;;;;;;21.93;11.00;;;3.60;99.90;;;;;;5059884;28;20537;-83
2023/03/06 07:01:51;;;;;;;19.70;10.90;;;3.50;99.90;;;;;;5097076;28;20059;-84
2023/03/06 07:04:17;;;;;;;20.33;11.53;;;3.50;99.90;;;;;;5072200;28;20295;-83
2023/03/06 07:06:44;;;;;;;17.93;10.90;;;3.50;99.90;;;;;;5084339;28;20032;-83
2023/03/06 07:09:11;;;;;;;17.90;12.03;;;3.50;99.90;;;;;;5100027;28;20044;-84
2023/03/06 07:11:37;;;;;;;18.07;10.10;;;3.60;99.90;;;;;;5100719;28;20043;-84
2023/03/06 07:14:03;;;;;;;17.67;10.30;;;3.60;99.90;;;;;;5100056;28;20042;-83
2023/03/06 07:16:29;;;;;;;19.73;10.27;;;3.60;99.90;;;;;;5100545;28;20028;-84
2023/03/06 07:18:55;;;;;;;14.83;9.00;;;3.70;99.90;;;;;;5101485;28;20440;-83
2023/03/06 07:21:20;;;;;;;15.67;9.17;;;3.70;99.90;;;;;;5099742;28;20438;-84
2023/03/06 07:23:46;;;;;;;16.87;9.23;;;3.80;99.90;;;;;;5090498;28;20085;-83
2023/03/06 07:26:12;;;;;;;16.13;9.97;;;3.80;99.90;;;;;;5073758;28;20464;-79
2023/03/06 07:28:37;;;;;;;15.50;9.03;;;3.90;99.90;;;;;;5091040;28;20032;-79
2023/03/06 07:31:08;;;;;;;14.00;8.53;;;3.90;99.90;;;;;;5089573;28;20357;-79
2023/03/06 07:33:34;;;;;;;14.67;8.10;;;3.90;99.90;;;;;;5092435;28;20024;-79
2023/03/06 07:36:00;;;;;;;15.80;8.40;;;4.00;99.90;;;;;;5090606;28;20028;-80
2023/03/06 07:38:25;;;;;;;13.33;6.83;;;4.00;99.90;;;;;;5074199;28;20105;-80
2023/03/06 07:40:51;;;;;;;13.20;8.00;;;4.10;99.90;;;;;;5095194;28;20387;-79
2023/03/06 07:43:18;;;;;;;14.93;7.70;;;4.10;99.90;;;;;;5079043;28;20103;-80
2023/03/06 07:45:45;;;;;;;11.30;6.83;;;4.20;99.90;;;;;;5077084;28;20036;-80
2023/03/06 07:48:12;;;;;;;12.67;6.77;;;4.20;99.90;;;;;;5091466;28;20031;-80
2023/03/06 07:50:37;;;;;;;11.63;7.27;;;4.40;99.90;;;;;;5090914;28;20020;-80
2023/03/06 07:53:03;;;;;;;12.60;6.77;;;4.30;99.90;;;;;;5080745;28;20047;-80
2023/03/06 07:55:29;;;;;;;13.03;6.13;;;4.30;99.90;;;;;;5073537;28;20758;-80
2023/03/06 07:57:54;;;;;;;10.60;5.93;;;4.50;99.90;;;;;;5066137;28;20553;-80
2023/03/06 08:00:20;;;;;;;9.90;5.23;;;4.40;99.90;;;;;;5053873;28;20048;-80
2023/03/06 08:02:46;;;;;;;9.43;4.50;;;4.40;99.90;;;;;;5070749;28;20090;-80
2023/03/06 08:05:13;;;;;;;8.73;4.57;;;4.50;99.90;;;;;;5072077;28;20491;-80
2023/03/06 08:07:39;;;;;;;7.63;4.10;;;4.50;99.90;;;;;;5088599;28;20049;-79
2023/03/06 08:10:05;;;;;;;7.97;3.70;;;4.50;99.90;;;;;;5087922;28;20032;-80
2023/03/06 08:12:31;;;;;;;12.10;3.77;;;4.60;99.90;;;;;;5094919;28;20043;-80
2023/03/06 08:14:57;;;;;;;7.40;3.70;;;4.60;99.90;;;;;;5094272;28;20036;-79
2023/03/06 08:17:22;;;;;;;7.33;3.43;;;4.60;99.90;;;;;;5096695;28;20074;-80
2023/03/06 08:19:48;;;;;;;5.40;3.13;;;4.60;99.90;;;;;;5078527;28;20052;-79
2023/03/06 08:22:14;;;;;;;5.47;2.57;;;4.70;99.90;;;;;;5082996;28;20357;-79
2023/03/06 08:24:40;;;;;;;6.37;2.60;;;4.80;99.90;;;;;;5103792;28;20055;-82
2023/03/06 08:27:05;;;;;;;5.30;2.43;;;4.90;99.90;;;;;;5088283;28;20486;-81
2023/03/06 08:29:31;;;;;;;6.27;1.77;;;4.90;99.90;;;;;;5079838;28;20031;-79
2023/03/06 08:31:56;;;;;;;6.63;1.83;;;5.00;99.90;;;;;;5074493;28;20039;-78
2023/03/06 08:34:25;;;;;;;3.57;1.40;;;5.10;99.90;;;;;;5075298;28;20465;-78
2023/03/06 08:36:51;;;;;;;2.80;1.20;;;5.10;99.90;;;;;;5092584;28;20093;-79
2023/03/06 08:39:17;;;;;;;3.73;1.40;;;5.20;99.90;;;;;;5094007;28;20032;-79
2023/03/06 08:41:43;;;;;;;2.47;1.00;;;5.30;99.90;;;;;;5094920;28;20537;-81
2023/03/06 08:44:11;;;;;;;1.87;1.00;;;5.40;99.90;;;;;;5093559;28;20032;-82
2023/03/06 08:46:37;;;;;;;1.80;0.80;;;5.40;99.90;;;;;;5075143;28;20029;-79
2023/03/06 08:49:03;;;;;;;1.70;0.70;;;5.60;99.90;;;;;;5073610;28;20399;-80
2023/03/06 08:51:29;;;;;;;3.43;0.83;;;5.70;99.70;;;;;;5090367;28;20028;-79
2023/03/06 08:53:56;;;;;;;2.60;0.90;;;5.70;99.40;;;;;;5092465;28;20036;-80
2023/03/06 08:56:25;;;;;;;2.00;0.80;;;5.80;99.30;;;;;;5077974;28;20054;-80
2023/03/06 08:58:53;;;;;;;3.33;0.80;;;5.90;98.80;;;;;;5107309;28;20028;-79
2023/03/06 09:01:30;;;;;;;1.77;0.60;;;5.90;98.40;;;;;;5096668;28;20070;-82
2023/03/06 09:03:59;;;;;;;2.20;0.80;;;6.00;98.20;;;;;;5113364;28;20573;-81
2023/03/06 09:06:26;;;;;;;4.30;1.20;;;6.00;97.80;;;;;;5093780;28;20065;-82
2023/03/06 09:08:52;;;;;;;2.50;0.50;;;6.00;97.70;;;;;;5093387;28;20082;-80
2023/03/06 09:11:20;;;;;;;2.60;0.50;;;6.10;97.80;;;;;;5075844;28;20028;-82
2023/03/06 09:13:46;;;;;;;4.10;0.70;;;6.10;97.30;;;;;;5093639;28;20020;-82
2023/03/06 09:16:11;;;;;;;4.43;0.40;;;6.10;96.10;;;;;;5076941;28;20161;-79
2023/03/06 09:18:37;;;;;;;1.40;0.50;;;6.20;95.80;;;;;;5058923;28;20421;-80
2023/03/06 09:21:04;;;;;;;1.17;0.50;;;6.20;95.50;;;;;;5093025;28;20510;-79
2023/03/06 09:23:30;;;;;;;2.80;0.50;;;6.20;95.60;;;;;;5099354;28;20069;-79
2023/03/06 09:25:58;;;;;;;1.73;0.60;;;6.40;95.60;;;;;;5081856;28;20035;-79
2023/03/06 09:28:26;;;;;;;1.40;0.40;;;6.40;95.00;;;;;;5093339;28;20085;-79
2023/03/06 09:30:51;;;;;;;1.23;0.40;;;6.50;95.00;;;;;;5076233;28;20534;-79
2023/03/06 09:33:18;;;;;;;0.77;0.40;;;6.60;94.70;;;;;;5081282;28;20028;-79
2023/03/06 09:35:55;;;;;;;1.87;0.40;;;6.60;94.10;;;;;;5084062;28;20028;-79
2023/03/06 09:38:24;;;;;;;3.27;0.40;;;6.70;93.90;;;;;;5108944;28;20490;-79
2023/03/06 09:41:20;;;;;;;2.20;0.50;;;6.80;93.00;;;;;;5092043;28;20082;-79
2023/03/06 09:43:49;;;;;;;3.03;0.33;;;6.80;92.80;;;;;;5093761;28;20661;-78
2023/03/06 09:46:37;;;;;;;1.30;0.37;;;6.90;92.40;;;;;;5092703;28;20021;-79
2023/03/06 09:49:12;;;;;;;2.17;0.30;;;7.00;91.90;;;;;;5092193;28;20086;-79
2023/03/06 09:51:52;;;;;;;1.17;0.40;;;7.10;92.00;;;;;;5092327;28;20040;-79
2023/03/06 09:54:23;;;;;;;0.40;0.30;;;7.30;92.00;;;;;;5092322;28;20047;-79
2023/03/06 09:56:49;;;;;;;1.30;0.30;;;7.40;91.80;;;;;;5092703;28;20028;-79
2023/03/06 09:59:24;;;;;;;0.63;0.33;;;7.50;91.50;;;;;;5090733;28;20097;-82
2023/03/06 10:01:59;;;;;;;1.20;0.30;;;7.70;91.50;;;;;;5119785;27;20023;-83
2023/03/06 10:04:35;;;;;;;1.20;0.37;;;7.80;91.20;;;;;;5112507;28;20035;-80
2023/03/06 10:07:26;;;;;;;0.40;0.27;;;8.10;91.10;;;;;;5112479;28;20029;-79
2023/03/06 10:10:02;;;;;;;1.47;0.30;;;8.40;90.10;;;;;;5107592;28;20056;-80
2023/03/06 10:12:34;;;;;;;0.77;0.20;;;8.60;89.20;;;;;;5090986;28;20030;-84
2023/03/06 10:15:21;;;;;;;0.60;0.27;;;9.00;89.30;;;;;;5090219;28;20071;-82
2023/03/06 10:17:47;;;;;;;1.57;0.20;;;9.30;89.70;;;;;;5116564;27;20016;-80
2023/03/06 10:20:23;;;;;;;0.60;0.30;;;9.90;90.00;;;;;;5074941;28;20044;-83
2023/03/06 10:23:30;;;;;;;4.53;0.20;;;10.30;87.40;;;;;;5091992;28;20020;-81
2023/03/06 10:26:17;;;;;;;0.82;0.10;;;10.90;87.20;;;;;;5072820;28;20035;-81
2023/03/06 10:28:47;;;;;;;0.55;0.10;;;11.60;85.30;;;;;;5112131;28;20080;-81
2023/03/06 10:31:25;;;;;;;0.30;0.10;;;12.00;84.40;;;;;;5111180;28;20119;-82
2023/03/06 10:34:14;;;;;;;0.43;0.10;;;12.40;81.80;;;;;;5093814;28;20024;-83
2023/03/06 10:36:39;;;;;;;1.05;0.10;;;12.90;80.30;;;;;;5093544;28;20028;-82
2023/03/06 10:39:14;;;;;;;0.30;0.10;;;13.20;76.70;;;;;;5074739;28;20097;-83
2023/03/06 10:41:40;;;;;;;0.20;0.10;;;13.50;72.60;;;;;;5091101;28;20020;-83
2023/03/06 10:44:07;;;;;;;2.10;0.30;;;13.80;69.20;;;;;;5092284;28;20039;-82
2023/03/06 10:46:41;;;;;;;0.30;0.10;;;14.10;67.80;;;;;;5091630;28;20036;-83
2023/03/06 10:49:22;;;;;;;1.98;0.20;;;14.40;64.90;;;;;;5092648;28;20032;-82
2023/03/06 10:52:14;;;;;;;0.60;0.10;;;14.70;64.20;;;;;;5091725;28;20023;-83
2023/03/06 10:54:42;;;;;;;0.25;0.10;;;15.20;62.90;;;;;;5086740;28;20055;-83
2023/03/06 10:57:28;;;;;;;1.40;0.20;;;15.40;60.40;;;;;;5093053;28;20049;-83
2023/03/06 10:59:57;;;;;;;0.43;0.20;;;15.50;58.60;;;;;;5091325;28;20127;-82
2023/03/06 11:02:39;;;;;;;0.32;0.10;;;15.60;58.40;;;;;;5103475;28;20531;-83
2023/03/06 11:05:17;;;;;;;1.27;0.20;;;15.60;56.80;;;;;;5112012;28;20024;-81
2023/03/06 11:08:01;;;;;;;1.23;0.10;;;15.60;56.80;;;;;;5111593;28;20059;-81
2023/03/06 11:10:29;;;;;;;0.93;0.20;;;15.30;56.20;;;;;;5110780;28;20063;-82
2023/03/06 11:12:56;;;;;;;1.00;0.10;;;14.90;54.40;;;;;;5109085;28;20020;-83
2023/03/06 11:15:26;;;;;;;0.85;0.20;;;14.70;54.40;;;;;;5092007;28;20024;-83
2023/03/06 11:17:59;;;;;;;0.73;0.13;;;14.80;55.00;;;;;;5091705;28;20375;-83
2023/03/06 11:20:27;;;;;;;1.42;0.20;;;15.00;54.30;;;;;;5106510;28;20027;-82
2023/03/06 11:23:15;;;;;;;0.25;0.10;;;15.10;53.70;;;;;;5103243;28;20020;-84
2023/03/06 11:25:51;;;;;;;0.52;0.10;;;15.00;53.50;;;;;;5091366;28;20032;-83
2023/03/06 11:28:31;;;;;;;0.35;0.20;;;15.20;53.30;;;;;;5091365;28;20078;-83
2023/03/06 11:31:15;;;;;;;0.35;0.10;;;15.60;52.70;;;;;;5092059;28;20028;-83
2023/03/06 11:33:57;;;;;;;1.55;0.10;;;16.00;51.70;;;;;;5104501;28;20039;-83
2023/03/06 11:36:54;;;;;;;0.10;0.05;;;16.30;51.00;;;;;;5092104;28;20038;-83
2023/03/06 11:39:25;;;;;;;0.80;0.20;;;16.40;50.00;;;;;;5095755;28;20182;-83
2023/03/06 11:42:21;;;;;;;0.90;0.20;;;16.70;50.20;;;;;;5092422;28;20051;-83
2023/03/06 11:45:05;;;;;;;0.63;0.20;;;16.90;48.00;;;;;;5090270;28;20047;-84
2023/03/06 11:47:36;;;;;;;2.05;0.38;;;17.20;47.00;;;;;;5105730;28;20024;-83
2023/03/06 11:50:04;;;;;;;1.02;0.20;;;17.30;47.30;;;;;;5100051;28;20024;-83
2023/03/06 11:52:43;;;;;;;2.08;0.30;;;17.50;47.20;;;;;;5095068;28;20024;-83
2023/03/06 11:55:15;;;;;;;1.38;0.28;;;17.70;45.60;;;;;;5098669;28;20481;-83
2023/03/06 11:57:59;;;;;;;1.58;0.20;;;17.80;46.00;;;;;;5111910;28;20039;-82
2023/03/06 12:00:49;;;;;;;0.40;0.15;;;17.80;45.30;;;;;;5075011;28;20033;-82
2023/03/06 12:03:45;;;;;;;0.73;0.20;;;17.40;45.00;;;;;;5082940;28;20032;-83
2023/03/06 12:06:28;;;;;;;0.55;0.20;;;17.40;45.40;;;;;;5091873;28;20024;-83
2023/03/06 12:09:03;;;;;;;0.77;0.28;;;17.40;45.50;;;;;;5093177;28;20055;-82
2023/03/06 12:11:41;;;;;;;0.47;0.20;;;17.40;44.40;;;;;;5088000;28;20680;-83
2023/03/06 12:14:45;;;;;;;1.50;0.20;;;17.40;44.20;;;;;;5091025;28;20443;-82
2023/03/06 12:17:45;;;;;;;0.52;0.20;;;17.50;44.20;;;;;;5089765;28;20032;-82
2023/03/06 12:20:11;;;;;;;1.70;0.30;;;17.60;44.40;;;;;;5035531;28;20049;-83
2023/03/06 12:23:04;;;;;;;0.85;0.20;;;17.70;44.70;;;;;;5091446;28;20119;-82
2023/03/06 12:25:55;;;;;;;0.32;0.13;;;17.80;44.40;;;;;;5102189;28;20380;-81
2023/03/06 12:28:33;;;;;;;0.70;0.28;;;17.90;44.10;;;;;;5053762;28;20032;-82
2023/03/06 12:31:40;;;;;;;0.43;0.10;;;17.80;44.40;;;;;;5090700;28;20028;-82
2023/03/06 12:34:15;;;;;;;0.80;0.17;;;17.70;44.20;;;;;;5095395;28;20032;-82
2023/03/06 12:37:02;;;;;;;0.77;0.20;;;17.70;44.80;;;;;;5101476;28;20036;-81
2023/03/06 12:39:56;;;;;;;1.65;0.15;;;17.90;44.10;;;;;;5092179;28;20483;-82
2023/03/06 12:43:04;;;;;;;0.80;0.20;;;17.90;43.80;;;;;;5110128;28;20028;-81
2023/03/06 12:45:35;;;;;;;0.50;0.20;;;17.90;43.40;;;;;;5093727;28;20289;-81
2023/03/06 12:48:03;;;;;;;2.80;0.43;;;17.50;42.90;;;;;;5092135;28;20020;-80
2023/03/06 12:50:32;;;;;;;1.45;0.30;;;17.40;44.30;;;;;;5107897;28;20051;-80
2023/03/06 12:53:04;;;;;;;0.88;0.20;;;17.40;44.00;;;;;;5093914;28;20024;-79
2023/03/06 12:55:40;;;;;;;3.10;0.47;;;17.30;44.10;;;;;;5092578;28;20058;-79
2023/03/06 12:58:30;;;;;;;1.20;0.38;;;17.20;44.30;;;;;;5098343;28;20031;-79
2023/03/06 13:01:03;;;;;;;2.47;0.30;;;17.00;43.90;;;;;;5115036;28;20467;-79